sensor_id;sensor_type;location;lat;lon;timestamp;pressure;altitude;pressure_sealevel;temperature;humidity
48089;BME280;33867;50.314;7.802;2023-07-29T00:03:57;99711.63;;;19.78;84.77
48089;BME280;33867;50.314;7.802;2023-07-29T00:07:19;99702.44;;;19.66;84.78
48089;BME280;33867;50.314;7.802;2023-07-29T00:24:35;99690.69;;;19.52;86.83
48089;BME280;33867;50.314;7.802;2023-07-29T00:28:35;99690.75;;;19.39;87.33
48089;BME280;33867;50.314;7.802;2023-07-29T00:33:00;99677.88;;;19.52;85.73
48089;BME280;33867;50.314;7.802;2023-07-29T00:37:23;99677.88;;;19.66;85.11
48089;BME280;33867;50.314;7.802;2023-07-29T00:41:06;99669.47;;;19.61;86.15
48089;BME280;33867;50.314;7.802;2023-07-29T00:44:25;99664.22;;;19.66;84.70
48089;BME280;33867;50.314;7.802;2023-07-29T00:47:45;99665.44;;;19.70;84.62
48089;BME280;33867;50.314;7.802;2023-07-29T00:51:34;99666.06;;;19.65;84.26
48089;BME280;33867;50.314;7.802;2023-07-29T00:54:56;99656.88;;;19.53;85.34
48089;BME280;33867;50.314;7.802;2023-07-29T00:58:21;99652.88;;;19.62;84.11
48089;BME280;33867;50.314;7.802;2023-07-29T01:02:15;99663.84;;;19.55;84.66
48089;BME280;33867;50.314;7.802;2023-07-29T01:06:06;99661.31;;;19.54;84.63
48089;BME280;33867;50.314;7.802;2023-07-29T01:13:53;99649.38;;;18.97;87.65
48089;BME280;33867;50.314;7.802;2023-07-29T01:17:46;99652.66;;;19.19;86.21
48089;BME280;33867;50.314;7.802;2023-07-29T01:21:15;99649.25;;;19.23;85.70
48089;BME280;33867;50.314;7.802;2023-07-29T01:24:40;99647.38;;;19.24;86.15
48089;BME280;33867;50.314;7.802;2023-07-29T01:27:59;99652.44;;;19.14;86.61
48089;BME280;33867;50.314;7.802;2023-07-29T01:59:42;99623.94;;;19.03;87.70
48089;BME280;33867;50.314;7.802;2023-07-29T02:03:02;99640.84;;;19.25;85.69
48089;BME280;33867;50.314;7.802;2023-07-29T02:06:51;99640.47;;;19.21;86.29
48089;BME280;33867;50.314;7.802;2023-07-29T02:11:07;99640.00;;;19.31;85.66
48089;BME280;33867;50.314;7.802;2023-07-29T02:19:14;99617.88;;;19.39;84.68
48089;BME280;33867;50.314;7.802;2023-07-29T02:22:33;99612.63;;;19.44;84.13
48089;BME280;33867;50.314;7.802;2023-07-29T02:25:54;99613.47;;;19.38;84.60
48089;BME280;33867;50.314;7.802;2023-07-29T02:37:36;99591.03;;;18.98;87.88
48089;BME280;33867;50.314;7.802;2023-07-29T02:41:29;99584.97;;;18.96;87.24
48089;BME280;33867;50.314;7.802;2023-07-29T02:45:07;99583.44;;;19.07;86.76
48089;BME280;33867;50.314;7.802;2023-07-29T02:48:29;99578.59;;;19.09;86.53
48089;BME280;33867;50.314;7.802;2023-07-29T02:51:49;99572.03;;;19.16;85.90
48089;BME280;33867;50.314;7.802;2023-07-29T02:55:16;99577.72;;;19.15;85.28
48089;BME280;33867;50.314;7.802;2023-07-29T02:58:38;99567.00;;;19.20;84.76
48089;BME280;33867;50.314;7.802;2023-07-29T03:06:49;99579.88;;;19.06;84.93
48089;BME280;33867;50.314;7.802;2023-07-29T03:10:09;99587.84;;;19.01;85.34
48089;BME280;33867;50.314;7.802;2023-07-29T03:13:32;99586.34;;;19.12;84.65
48089;BME280;33867;50.314;7.802;2023-07-29T03:16:51;99581.84;;;18.86;87.66
48089;BME280;33867;50.314;7.802;2023-07-29T03:20:23;99575.56;;;18.85;87.65
48089;BME280;33867;50.314;7.802;2023-07-29T03:28:59;99564.34;;;18.49;90.43
48089;BME280;33867;50.314;7.802;2023-07-29T03:32:50;99560.75;;;18.55;89.71
48089;BME280;33867;50.314;7.802;2023-07-29T03:36:19;99577.50;;;18.65;88.38
48089;BME280;33867;50.314;7.802;2023-07-29T03:39:39;99571.41;;;18.76;87.17
48089;BME280;33867;50.314;7.802;2023-07-29T03:43:02;99565.72;;;18.78;86.95
48089;BME280;33867;50.314;7.802;2023-07-29T03:46:50;99560.88;;;18.86;85.82
48089;BME280;33867;50.314;7.802;2023-07-29T03:50:20;99561.53;;;18.75;86.32
48089;BME280;33867;50.314;7.802;2023-07-29T03:53:48;99578.09;;;18.80;85.96
48089;BME280;33867;50.314;7.802;2023-07-29T03:57:10;99567.69;;;18.51;88.23
48089;BME280;33867;50.314;7.802;2023-07-29T04:00:29;99562.66;;;18.48;89.04
48089;BME280;33867;50.314;7.802;2023-07-29T04:03:55;99571.72;;;18.28;91.28
48089;BME280;33867;50.314;7.802;2023-07-29T04:07:14;99556.63;;;18.19;91.87
48089;BME280;33867;50.314;7.802;2023-07-29T04:10:33;99558.09;;;18.28;90.96
48089;BME280;33867;50.314;7.802;2023-07-29T04:14:05;99558.34;;;18.00;94.32
48089;BME280;33867;50.314;7.802;2023-07-29T04:17:24;99571.06;;;18.33;90.49
48089;BME280;33867;50.314;7.802;2023-07-29T04:20:45;99568.56;;;18.31;90.67
48089;BME280;33867;50.314;7.802;2023-07-29T04:24:19;99571.63;;;18.61;87.92
48089;BME280;33867;50.314;7.802;2023-07-29T04:27:43;99588.19;;;18.73;87.01
48089;BME280;33867;50.314;7.802;2023-07-29T04:31:32;99580.00;;;18.73;87.64
48089;BME280;33867;50.314;7.802;2023-07-29T04:35:19;99575.72;;;18.90;85.56
48089;BME280;33867;50.314;7.802;2023-07-29T04:38:38;99584.13;;;18.95;84.94
48089;BME280;33867;50.314;7.802;2023-07-29T04:41:57;99585.03;;;18.83;86.84
48089;BME280;33867;50.314;7.802;2023-07-29T04:45:18;99581.44;;;18.82;87.35
48089;BME280;33867;50.314;7.802;2023-07-29T04:48:37;99582.44;;;18.94;86.18
48089;BME280;33867;50.314;7.802;2023-07-29T04:52:03;99569.06;;;18.86;87.12
48089;BME280;33867;50.314;7.802;2023-07-29T04:55:35;99574.97;;;19.15;84.79
48089;BME280;33867;50.314;7.802;2023-07-29T04:58:54;99572.84;;;19.23;84.04
48089;BME280;33867;50.314;7.802;2023-07-29T05:02:16;99569.53;;;19.15;85.87
48089;BME280;33867;50.314;7.802;2023-07-29T05:10:01;99567.41;;;19.17;85.53
48089;BME280;33867;50.314;7.802;2023-07-29T05:13:26;99577.84;;;19.33;83.81
48089;BME280;33867;50.314;7.802;2023-07-29T05:17:32;99570.81;;;19.06;87.01
48089;BME280;33867;50.314;7.802;2023-07-29T05:36:34;99591.81;;;19.12;88.99
48089;BME280;33867;50.314;7.802;2023-07-29T06:22:03;99582.41;;;19.01;93.39
48089;BME280;33867;50.314;7.802;2023-07-29T06:26:03;99577.09;;;19.13;91.86
48089;BME280;33867;50.314;7.802;2023-07-29T06:29:40;99583.91;;;19.35;88.82
48089;BME280;33867;50.314;7.802;2023-07-29T06:42:32;99593.38;;;19.64;85.80
48089;BME280;33867;50.314;7.802;2023-07-29T06:45:51;99618.28;;;19.81;84.40
48089;BME280;33867;50.314;7.802;2023-07-29T06:53:13;99614.63;;;19.94;86.08
48089;BME280;33867;50.314;7.802;2023-07-29T06:57:16;99620.97;;;20.12;85.96
48089;BME280;33867;50.314;7.802;2023-07-29T07:01:26;99615.09;;;19.84;89.75
48089;BME280;33867;50.314;7.802;2023-07-29T07:10:29;99631.78;;;21.06;86.96
48089;BME280;33867;50.314;7.802;2023-07-29T07:14:54;99630.47;;;21.86;81.19
48089;BME280;33867;50.314;7.802;2023-07-29T07:20:01;99626.84;;;25.01;68.96
48089;BME280;33867;50.314;7.802;2023-07-29T07:23:27;99636.84;;;26.10;66.57
48089;BME280;33867;50.314;7.802;2023-07-29T07:27:03;99637.59;;;27.12;63.57
48089;BME280;33867;50.314;7.802;2023-07-29T07:30:22;99639.88;;;27.35;63.17
48089;BME280;33867;50.314;7.802;2023-07-29T07:37:38;99628.78;;;25.71;66.68
48089;BME280;33867;50.314;7.802;2023-07-29T08:01:09;99621.03;;;24.81;71.85
48089;BME280;33867;50.314;7.802;2023-07-29T08:04:57;99631.44;;;25.66;70.58
48089;BME280;33867;50.314;7.802;2023-07-29T08:09:04;99635.66;;;26.65;65.35
48089;BME280;33867;50.314;7.802;2023-07-29T08:42:23;99642.28;;;28.45;59.94
48089;BME280;33867;50.314;7.802;2023-07-29T08:45:56;99636.41;;;27.80;60.20
48089;BME280;33867;50.314;7.802;2023-07-29T09:08:44;99648.66;;;24.69;69.58
48089;BME280;33867;50.314;7.802;2023-07-29T09:45:27;99672.94;;;24.21;70.97
48089;BME280;33867;50.314;7.802;2023-07-29T09:53:18;99676.91;;;23.97;69.71
48089;BME280;33867;50.314;7.802;2023-07-29T10:06:05;99693.72;;;23.84;70.70
48089;BME280;33867;50.314;7.802;2023-07-29T10:09:34;99712.31;;;23.65;68.09
48089;BME280;33867;50.314;7.802;2023-07-29T10:12:56;99699.78;;;23.57;68.58
48089;BME280;33867;50.314;7.802;2023-07-29T10:21:05;99702.09;;;24.23;68.06
48089;BME280;33867;50.314;7.802;2023-07-29T10:30:34;99696.47;;;24.29;66.60
48089;BME280;33867;50.314;7.802;2023-07-29T11:33:57;99622.28;;;28.78;50.02
48089;BME280;33867;50.314;7.802;2023-07-29T11:49:37;99618.06;;;29.66;50.26
48089;BME280;33867;50.314;7.802;2023-07-29T11:58:54;99617.44;;;26.69;48.43
48089;BME280;33867;50.314;7.802;2023-07-29T12:07:19;99605.72;;;28.22;53.56
48089;BME280;33867;50.314;7.802;2023-07-29T12:14:57;99601.00;;;27.82;55.45
48089;BME280;33867;50.314;7.802;2023-07-29T12:18:57;99604.06;;;27.76;55.58
48089;BME280;33867;50.314;7.802;2023-07-29T12:23:04;99610.88;;;27.58;58.22
48089;BME280;33867;50.314;7.802;2023-07-29T12:31:07;99604.06;;;28.01;53.09
48089;BME280;33867;50.314;7.802;2023-07-29T12:34:31;99592.28;;;29.06;51.92
48089;BME280;33867;50.314;7.802;2023-07-29T12:38:02;99599.84;;;28.75;47.73
48089;BME280;33867;50.314;7.802;2023-07-29T12:47:08;99584.16;;;29.69;44.51
48089;BME280;33867;50.314;7.802;2023-07-29T12:55:43;99586.38;;;30.11;46.17
48089;BME280;33867;50.314;7.802;2023-07-29T13:18:40;99593.91;;;31.11;41.54
48089;BME280;33867;50.314;7.802;2023-07-29T13:49:09;99567.59;;;29.59;43.08
48089;BME280;33867;50.314;7.802;2023-07-29T13:57:38;99560.22;;;28.74;42.45
48089;BME280;33867;50.314;7.802;2023-07-29T14:01:25;99562.53;;;28.16;47.22
48089;BME280;33867;50.314;7.802;2023-07-29T14:05:04;99576.34;;;28.52;48.31
48089;BME280;33867;50.314;7.802;2023-07-29T14:35:34;99567.47;;;27.53;52.49
48089;BME280;33867;50.314;7.802;2023-07-29T14:54:55;99558.75;;;29.02;47.52
48089;BME280;33867;50.314;7.802;2023-07-29T14:58:21;99551.00;;;29.04;46.53
48089;BME280;33867;50.314;7.802;2023-07-29T15:14:02;99567.28;;;28.31;47.20
48089;BME280;33867;50.314;7.802;2023-07-29T15:17:37;99564.75;;;28.45;48.40
48089;BME280;33867;50.314;7.802;2023-07-29T15:28:22;99564.69;;;28.65;45.28
48089;BME280;33867;50.314;7.802;2023-07-29T15:47:53;99563.38;;;27.76;46.37
48089;BME280;33867;50.314;7.802;2023-07-29T15:51:14;99562.72;;;28.71;45.39
48089;BME280;33867;50.314;7.802;2023-07-29T15:54:37;99557.03;;;29.17;45.36
48089;BME280;33867;50.314;7.802;2023-07-29T15:57:59;99572.38;;;28.83;41.38
48089;BME280;33867;50.314;7.802;2023-07-29T16:25:30;99574.03;;;27.12;48.10
48089;BME280;33867;50.314;7.802;2023-07-29T17:22:49;99587.81;;;25.85;55.28
48089;BME280;33867;50.314;7.802;2023-07-29T17:26:19;99598.59;;;25.91;56.46
48089;BME280;33867;50.314;7.802;2023-07-29T17:40:41;99598.56;;;25.59;59.23
48089;BME280;33867;50.314;7.802;2023-07-29T17:44:03;99610.16;;;24.91;58.65
48089;BME280;33867;50.314;7.802;2023-07-29T17:47:32;99607.75;;;25.16;59.81
48089;BME280;33867;50.314;7.802;2023-07-29T17:54:31;99618.47;;;24.96;59.59
48089;BME280;33867;50.314;7.802;2023-07-29T17:57:50;99625.28;;;24.71;59.77
48089;BME280;33867;50.314;7.802;2023-07-29T18:12:13;99638.09;;;24.27;59.42
48089;BME280;33867;50.314;7.802;2023-07-29T18:24:21;99635.56;;;24.26;61.71
48089;BME280;33867;50.314;7.802;2023-07-29T18:27:40;99641.59;;;24.23;61.94
48089;BME280;33867;50.314;7.802;2023-07-29T18:31:00;99641.22;;;23.85;61.22
48089;BME280;33867;50.314;7.802;2023-07-29T18:34:19;99653.63;;;23.31;64.06
48089;BME280;33867;50.314;7.802;2023-07-29T18:53:32;99677.22;;;23.03;67.64
48089;BME280;33867;50.314;7.802;2023-07-29T18:57:04;99673.78;;;22.50;68.07
48089;BME280;33867;50.314;7.802;2023-07-29T19:42:18;99736.78;;;21.36;75.12
48089;BME280;33867;50.314;7.802;2023-07-29T19:47:01;99721.47;;;21.28;77.88
48089;BME280;33867;50.314;7.802;2023-07-29T19:50:15;99727.84;;;20.61;80.43
48089;BME280;33867;50.314;7.802;2023-07-29T19:53:37;99728.47;;;20.81;79.93
48089;BME280;33867;50.314;7.802;2023-07-29T19:56:56;99735.38;;;20.65;80.30
48089;BME280;33867;50.314;7.802;2023-07-29T20:00:15;99752.19;;;21.12;77.22
48089;BME280;33867;50.314;7.802;2023-07-29T20:03:35;99752.94;;;21.19;77.64
48089;BME280;33867;50.314;7.802;2023-07-29T20:06:54;99749.06;;;20.65;81.04
48089;BME280;33867;50.314;7.802;2023-07-29T20:10:14;99734.03;;;20.75;81.33
48089;BME280;33867;50.314;7.802;2023-07-29T20:13:48;99733.97;;;20.81;79.51
48089;BME280;33867;50.314;7.802;2023-07-29T20:17:07;99731.25;;;20.99;78.43
48089;BME280;33867;50.314;7.802;2023-07-29T20:20:26;99732.00;;;21.07;78.15
48089;BME280;33867;50.314;7.802;2023-07-29T20:23:45;99735.75;;;21.12;78.54
48089;BME280;33867;50.314;7.802;2023-07-29T20:27:07;99727.81;;;21.04;79.49
48089;BME280;33867;50.314;7.802;2023-07-29T20:30:26;99737.94;;;21.03;79.63
48089;BME280;33867;50.314;7.802;2023-07-29T20:33:49;99727.09;;;20.47;81.24
48089;BME280;33867;50.314;7.802;2023-07-29T20:37:07;99728.41;;;20.44;81.29
48089;BME280;33867;50.314;7.802;2023-07-29T20:40:26;99727.63;;;20.31;81.55
48089;BME280;33867;50.314;7.802;2023-07-29T20:43:46;99737.28;;;20.33;81.52
48089;BME280;33867;50.314;7.802;2023-07-29T20:47:05;99734.97;;;20.37;80.86
48089;BME280;33867;50.314;7.802;2023-07-29T20:50:45;99748.69;;;20.30;80.43
48089;BME280;33867;50.314;7.802;2023-07-29T20:54:42;99739.78;;;20.35;80.04
48089;BME280;33867;50.314;7.802;2023-07-29T20:58:17;99728.59;;;20.50;78.84
48089;BME280;33867;50.314;7.802;2023-07-29T21:02:27;99724.50;;;20.02;81.32
48089;BME280;33867;50.314;7.802;2023-07-29T21:06:53;99752.69;;;20.28;79.73
48089;BME280;33867;50.314;7.802;2023-07-29T21:10:18;99751.03;;;20.27;80.51
48089;BME280;33867;50.314;7.802;2023-07-29T21:13:38;99764.16;;;20.43;79.11
48089;BME280;33867;50.314;7.802;2023-07-29T21:16:58;99768.78;;;20.49;78.61
48089;BME280;33867;50.314;7.802;2023-07-29T21:20:19;99768.13;;;20.15;81.04
48089;BME280;33867;50.314;7.802;2023-07-29T21:23:38;99768.91;;;20.23;79.82
48089;BME280;33867;50.314;7.802;2023-07-29T21:26:57;99776.25;;;20.29;79.41
48089;BME280;33867;50.314;7.802;2023-07-29T21:30:41;99775.41;;;20.28;79.56
48089;BME280;33867;50.314;7.802;2023-07-29T21:34:00;99768.03;;;20.29;79.18
48089;BME280;33867;50.314;7.802;2023-07-29T21:37:19;99769.84;;;20.41;78.15
48089;BME280;33867;50.314;7.802;2023-07-29T21:40:38;99761.63;;;20.41;78.36
48089;BME280;33867;50.314;7.802;2023-07-29T21:43:57;99771.31;;;20.44;78.21
48089;BME280;33867;50.314;7.802;2023-07-29T21:47:17;99773.25;;;20.05;79.42
48089;BME280;33867;50.314;7.802;2023-07-29T21:50:41;99777.06;;;19.98;80.13
48089;BME280;33867;50.314;7.802;2023-07-29T21:54:00;99784.63;;;20.02;79.46
48089;BME280;33867;50.314;7.802;2023-07-29T21:57:21;99783.78;;;20.02;81.37
48089;BME280;33867;50.314;7.802;2023-07-29T22:00:52;99793.59;;;19.71;81.70
48089;BME280;33867;50.314;7.802;2023-07-29T22:04:44;99787.72;;;19.68;80.90
48089;BME280;33867;50.314;7.802;2023-07-29T22:08:56;99778.84;;;19.79;80.16
48089;BME280;33867;50.314;7.802;2023-07-29T22:12:15;99787.53;;;19.49;82.44
48089;BME280;33867;50.314;7.802;2023-07-29T22:15:37;99784.34;;;19.72;80.22
48089;BME280;33867;50.314;7.802;2023-07-29T22:18:56;99787.91;;;19.73;79.56
48089;BME280;33867;50.314;7.802;2023-07-29T22:22:15;99792.38;;;19.41;81.53
48089;BME280;33867;50.314;7.802;2023-07-29T22:25:34;99794.50;;;19.39;81.02
48089;BME280;33867;50.314;7.802;2023-07-29T22:28:53;99796.78;;;19.48;80.28
48089;BME280;33867;50.314;7.802;2023-07-29T22:32:14;99800.75;;;19.52;81.25
48089;BME280;33867;50.314;7.802;2023-07-29T22:35:34;99806.91;;;19.35;81.43
48089;BME280;33867;50.314;7.802;2023-07-29T22:38:55;99803.78;;;19.31;82.46
48089;BME280;33867;50.314;7.802;2023-07-29T22:42:15;99803.97;;;19.36;81.37
48089;BME280;33867;50.314;7.802;2023-07-29T22:45:37;99794.81;;;18.97;83.77
48089;BME280;33867;50.314;7.802;2023-07-29T22:48:56;99786.56;;;19.24;81.62
48089;BME280;33867;50.314;7.802;2023-07-29T22:52:15;99784.19;;;19.41;80.66
48089;BME280;33867;50.314;7.802;2023-07-29T22:55:34;99800.03;;;19.19;82.30
48089;BME280;33867;50.314;7.802;2023-07-29T22:58:58;99796.25;;;18.93;83.38
48089;BME280;33867;50.314;7.802;2023-07-29T23:02:20;99783.06;;;18.77;84.46
48089;BME280;33867;50.314;7.802;2023-07-29T23:05:40;99797.13;;;18.81;83.58
48089;BME280;33867;50.314;7.802;2023-07-29T23:08:59;99793.75;;;19.12;81.65
48089;BME280;33867;50.314;7.802;2023-07-29T23:12:18;99793.75;;;19.12;83.01
48089;BME280;33867;50.314;7.802;2023-07-29T23:15:39;99787.63;;;19.23;81.12
48089;BME280;33867;50.314;7.802;2023-07-29T23:18:58;99799.16;;;19.32;80.44
48089;BME280;33867;50.314;7.802;2023-07-29T23:22:17;99807.75;;;19.42;79.71
48089;BME280;33867;50.314;7.802;2023-07-29T23:25:36;99812.63;;;19.20;82.57
48089;BME280;33867;50.314;7.802;2023-07-29T23:28:55;99813.88;;;19.17;81.54
48089;BME280;33867;50.314;7.802;2023-07-29T23:32:14;99813.28;;;19.09;82.97
48089;BME280;33867;50.314;7.802;2023-07-29T23:35:33;99805.94;;;18.76;85.13
48089;BME280;33867;50.314;7.802;2023-07-29T23:38:51;99808.88;;;18.88;83.45
48089;BME280;33867;50.314;7.802;2023-07-29T23:42:14;99801.13;;;18.72;84.41
48089;BME280;33867;50.314;7.802;2023-07-29T23:45:36;99794.19;;;18.95;82.12
48089;BME280;33867;50.314;7.802;2023-07-29T23:48:55;99784.53;;;19.06;80.78
48089;BME280;33867;50.314;7.802;2023-07-29T23:52:28;99794.16;;;19.02;81.29
48089;BME280;33867;50.314;7.802;2023-07-29T23:56:09;99798.13;;;19.13;80.95
